UAL411 MDPP-TNCM
Flight info
| Callsign | UAL411 |
|---|---|
| Flight time | 1h 14m |
| Altitude | 37000 |
| Route | POKEG3C POKEG DCT PIXAR DCT KATOK M348 MEEGL DCT BQN RTE2 SJU RTE6 STT B520 PJM |
| Aircraft | A320/M-SDE3FGHIRWY/LB1 |
Departure
| Time | 2026-04-12 02:21 |
|---|---|
| Airport | Gregorio Luperon International Airport (MDPP) |
Arrival
| Time | 2026-04-12 03:35 |
|---|---|
| Airport | Princess Juliana International Airport (TNCM) |
| Time | Latitude | Longitude | Altitude | Speed | Heading |
|---|---|---|---|---|---|
| 2026-04-12 01:53 | 19.75496 | -70.56473 | 158 ft | 0 kts | 6° |
| 2026-04-12 02:07 | 19.75479 | -70.56475 | 49 ft | 3 kts | 6° |
| 2026-04-12 02:07 | 19.75462 | -70.56477 | 45 ft | 2 kts | 6° |
| 2026-04-12 02:07 | 19.75449 | -70.56478 | 48 ft | 0 kts | 328° |
| 2026-04-12 02:10 | 19.75460 | -70.56486 | 47 ft | 5 kts | 323° |
| 2026-04-12 02:10 | 19.75479 | -70.56539 | 49 ft | 9 kts | 292° |
| 2026-04-12 02:11 | 19.75532 | -70.56589 | 49 ft | 12 kts | 334° |
| 2026-04-12 02:11 | 19.75608 | -70.56639 | 49 ft | 14 kts | 308° |
| 2026-04-12 02:11 | 19.75608 | -70.56748 | 47 ft | 17 kts | 253° |
| 2026-04-12 02:11 | 19.75571 | -70.56880 | 43 ft | 21 kts | 254° |
| 2026-04-12 02:12 | 19.75535 | -70.57013 | 42 ft | 11 kts | 258° |
| 2026-04-12 02:12 | 19.75573 | -70.57092 | 41 ft | 14 kts | 314° |
| 2026-04-12 02:12 | 19.75639 | -70.57166 | 40 ft | 0 kts | 314° |
| 2026-04-12 02:13 | 19.75642 | -70.57170 | 40 ft | 3 kts | 314° |
| 2026-04-12 02:13 | 19.75645 | -70.57173 | 38 ft | 0 kts | 314° |
| 2026-04-12 02:17 | 19.75662 | -70.57191 | 37 ft | 9 kts | 314° |
| 2026-04-12 02:17 | 19.75696 | -70.57281 | 36 ft | 17 kts | 272° |
| 2026-04-12 02:18 | 19.75664 | -70.57413 | 35 ft | 20 kts | 252° |
| 2026-04-12 02:18 | 19.75621 | -70.57562 | 33 ft | 22 kts | 253° |
| 2026-04-12 02:18 | 19.75575 | -70.57726 | 35 ft | 23 kts | 254° |
| 2026-04-12 02:18 | 19.75529 | -70.57891 | 35 ft | 24 kts | 251° |
| 2026-04-12 02:19 | 19.75478 | -70.58066 | 35 ft | 25 kts | 252° |
| 2026-04-12 02:19 | 19.75427 | -70.58243 | 33 ft | 18 kts | 257° |
| 2026-04-12 02:19 | 19.75407 | -70.58357 | 33 ft | 12 kts | 264° |
| 2026-04-12 02:19 | 19.75397 | -70.58380 | 32 ft | 3 kts | 210° |
| 2026-04-12 02:20 | 19.75386 | -70.58351 | 30 ft | 8 kts | 67° |
| 2026-04-12 02:20 | 19.75421 | -70.58273 | 34 ft | 19 kts | 72° |
| 2026-04-12 02:20 | 19.75551 | -70.57827 | 36 ft | 108 kts | 72° |
| 2026-04-12 02:20 | 19.75841 | -70.56816 | 44 ft | 175 kts | 73° |
| 2026-04-12 02:21 | 19.76226 | -70.55574 | 781 ft | 174 kts | 70° |
| 2026-04-12 02:21 | 19.76593 | -70.54341 | 1574 ft | 180 kts | 71° |
| 2026-04-12 02:21 | 19.76907 | -70.53002 | 2178 ft | 197 kts | 84° |
| 2026-04-12 02:21 | 19.76618 | -70.51502 | 2757 ft | 223 kts | 109° |
| 2026-04-12 02:22 | 19.76029 | -70.49879 | 3392 ft | 248 kts | 111° |
| 2026-04-12 02:22 | 19.75372 | -70.48107 | 3803 ft | 272 kts | 111° |
| 2026-04-12 02:22 | 19.74663 | -70.46227 | 4572 ft | 278 kts | 111° |
| 2026-04-12 02:22 | 19.73937 | -70.44271 | 5344 ft | 283 kts | 111° |
| 2026-04-12 02:23 | 19.73219 | -70.42341 | 6127 ft | 287 kts | 112° |
| 2026-04-12 02:23 | 19.72478 | -70.40369 | 6943 ft | 288 kts | 112° |
| 2026-04-12 02:23 | 19.71735 | -70.38376 | 7691 ft | 292 kts | 112° |
| 2026-04-12 02:23 | 19.70987 | -70.36357 | 8440 ft | 296 kts | 112° |
| 2026-04-12 02:24 | 19.70237 | -70.34302 | 9182 ft | 300 kts | 112° |
| 2026-04-12 02:24 | 19.69479 | -70.32225 | 9902 ft | 303 kts | 112° |
| 2026-04-12 02:24 | 19.68695 | -70.30089 | 10283 ft | 320 kts | 112° |
| 2026-04-12 02:24 | 19.67859 | -70.27817 | 10508 ft | 339 kts | 112° |
| 2026-04-12 02:25 | 19.66990 | -70.25464 | 11018 ft | 345 kts | 112° |
| 2026-04-12 02:25 | 19.66107 | -70.23075 | 11613 ft | 349 kts | 112° |
| 2026-04-12 02:25 | 19.65215 | -70.20665 | 12213 ft | 353 kts | 112° |
| 2026-04-12 02:25 | 19.64316 | -70.18223 | 12836 ft | 356 kts | 111° |
| 2026-04-12 02:26 | 19.63412 | -70.15763 | 13471 ft | 359 kts | 111° |
| 2026-04-12 02:26 | 19.62500 | -70.13291 | 14075 ft | 361 kts | 112° |
| 2026-04-12 02:26 | 19.61578 | -70.10794 | 14560 ft | 366 kts | 111° |
| 2026-04-12 02:26 | 19.60647 | -70.08272 | 15060 ft | 370 kts | 111° |
| 2026-04-12 02:27 | 19.59702 | -70.05720 | 15576 ft | 373 kts | 111° |
| 2026-04-12 02:27 | 19.58751 | -70.03150 | 16108 ft | 376 kts | 111° |
| 2026-04-12 02:27 | 19.57804 | -70.00589 | 16695 ft | 380 kts | 111° |
| 2026-04-12 02:27 | 19.56836 | -69.97970 | 17361 ft | 384 kts | 111° |
| 2026-04-12 02:28 | 19.55857 | -69.95323 | 18029 ft | 388 kts | 111° |
| 2026-04-12 02:28 | 19.54866 | -69.92647 | 18588 ft | 392 kts | 111° |
| 2026-04-12 02:28 | 19.53865 | -69.89950 | 19047 ft | 394 kts | 111° |
| 2026-04-12 02:28 | 19.52855 | -69.87235 | 19522 ft | 397 kts | 111° |
| 2026-04-12 02:29 | 19.51837 | -69.84503 | 20001 ft | 400 kts | 111° |
| 2026-04-12 02:29 | 19.50810 | -69.81748 | 20494 ft | 403 kts | 111° |
| 2026-04-12 02:29 | 19.49776 | -69.78975 | 20978 ft | 406 kts | 112° |
| 2026-04-12 02:29 | 19.48736 | -69.76179 | 21453 ft | 409 kts | 112° |
| 2026-04-12 02:30 | 19.47691 | -69.73360 | 21924 ft | 413 kts | 112° |
| 2026-04-12 02:30 | 19.46636 | -69.70514 | 22395 ft | 416 kts | 112° |
| 2026-04-12 02:30 | 19.45569 | -69.67652 | 22869 ft | 419 kts | 112° |
| 2026-04-12 02:30 | 19.44494 | -69.64768 | 23346 ft | 423 kts | 112° |
| 2026-04-12 02:31 | 19.43412 | -69.61859 | 23764 ft | 426 kts | 112° |
| 2026-04-12 02:31 | 19.42324 | -69.58930 | 24138 ft | 429 kts | 112° |
| 2026-04-12 02:31 | 19.41224 | -69.55978 | 24509 ft | 433 kts | 112° |
| 2026-04-12 02:31 | 19.40113 | -69.52997 | 24865 ft | 436 kts | 112° |
| 2026-04-12 02:32 | 19.38992 | -69.50000 | 25219 ft | 439 kts | 113° |
| 2026-04-12 02:32 | 19.37858 | -69.46986 | 25564 ft | 443 kts | 113° |
| 2026-04-12 02:32 | 19.36716 | -69.43947 | 25907 ft | 446 kts | 113° |
| 2026-04-12 02:32 | 19.35566 | -69.40882 | 26248 ft | 449 kts | 113° |
| 2026-04-12 02:33 | 19.34409 | -69.37799 | 26587 ft | 452 kts | 113° |
| 2026-04-12 02:33 | 19.33256 | -69.34728 | 26931 ft | 455 kts | 113° |
| 2026-04-12 02:33 | 19.32084 | -69.31604 | 27261 ft | 458 kts | 113° |
| 2026-04-12 02:33 | 19.30904 | -69.28454 | 27590 ft | 461 kts | 113° |
| 2026-04-12 02:34 | 19.29718 | -69.25285 | 27921 ft | 465 kts | 113° |
| 2026-04-12 02:34 | 19.28523 | -69.22100 | 28228 ft | 468 kts | 113° |
| 2026-04-12 02:34 | 19.27316 | -69.18891 | 28542 ft | 471 kts | 113° |
| 2026-04-12 02:34 | 19.26102 | -69.15661 | 28861 ft | 474 kts | 113° |
| 2026-04-12 02:35 | 19.24880 | -69.12411 | 29188 ft | 477 kts | 113° |
| 2026-04-12 02:35 | 19.23647 | -69.09142 | 29506 ft | 480 kts | 113° |
| 2026-04-12 02:35 | 19.22406 | -69.05855 | 29818 ft | 483 kts | 114° |
| 2026-04-12 02:35 | 19.21156 | -69.02544 | 30137 ft | 485 kts | 113° |
| 2026-04-12 02:36 | 19.19907 | -68.99225 | 30419 ft | 487 kts | 113° |
| 2026-04-12 02:36 | 19.18649 | -68.95891 | 30692 ft | 489 kts | 113° |
| 2026-04-12 02:36 | 19.17385 | -68.92545 | 30953 ft | 491 kts | 113° |
| 2026-04-12 02:36 | 19.16115 | -68.89181 | 31224 ft | 493 kts | 113° |
| 2026-04-12 02:37 | 19.14843 | -68.85814 | 31596 ft | 493 kts | 114° |
| 2026-04-12 02:37 | 19.13588 | -68.82493 | 31938 ft | 493 kts | 113° |
| 2026-04-12 02:37 | 19.12331 | -68.79115 | 32273 ft | 494 kts | 113° |
| 2026-04-12 02:37 | 19.11088 | -68.75732 | 32621 ft | 494 kts | 113° |
| 2026-04-12 02:38 | 19.09848 | -68.72333 | 32976 ft | 494 kts | 113° |
| 2026-04-12 02:38 | 19.08610 | -68.68943 | 33336 ft | 494 kts | 113° |
| 2026-04-12 02:38 | 19.07371 | -68.65556 | 33700 ft | 494 kts | 113° |
| 2026-04-12 02:38 | 19.06126 | -68.62167 | 34050 ft | 494 kts | 113° |
| 2026-04-12 02:39 | 19.04881 | -68.58779 | 34340 ft | 495 kts | 113° |
| 2026-04-12 02:39 | 19.03632 | -68.55390 | 34612 ft | 495 kts | 113° |
| 2026-04-12 02:39 | 19.02378 | -68.52001 | 34869 ft | 496 kts | 113° |
| 2026-04-12 02:39 | 19.01113 | -68.48595 | 35077 ft | 498 kts | 113° |
| 2026-04-12 02:40 | 18.99849 | -68.45183 | 35302 ft | 500 kts | 113° |
| 2026-04-12 02:40 | 18.98585 | -68.41757 | 35551 ft | 500 kts | 113° |
| 2026-04-12 02:40 | 18.97321 | -68.38331 | 35802 ft | 501 kts | 113° |
| 2026-04-12 02:40 | 18.96056 | -68.34905 | 36050 ft | 501 kts | 113° |
| 2026-04-12 02:41 | 18.94786 | -68.31469 | 36293 ft | 502 kts | 113° |
| 2026-04-12 02:41 | 18.93510 | -68.28034 | 36532 ft | 502 kts | 113° |
| 2026-04-12 02:41 | 18.92231 | -68.24598 | 36768 ft | 503 kts | 113° |
| 2026-04-12 02:41 | 18.90949 | -68.21158 | 36959 ft | 504 kts | 113° |
| 2026-04-12 02:42 | 18.88390 | -68.14268 | 37013 ft | 504 kts | 113° |
| 2026-04-12 02:43 | 18.84563 | -68.03993 | 37015 ft | 504 kts | 113° |
| 2026-04-12 02:43 | 18.81990 | -67.97108 | 37015 ft | 503 kts | 113° |
| 2026-04-12 02:44 | 18.79419 | -67.90226 | 37012 ft | 504 kts | 113° |
| 2026-04-12 02:44 | 18.76847 | -67.83337 | 37015 ft | 504 kts | 113° |
| 2026-04-12 02:45 | 18.74288 | -67.76501 | 37013 ft | 504 kts | 113° |
| 2026-04-12 02:45 | 18.71710 | -67.69612 | 37032 ft | 503 kts | 113° |
| 2026-04-12 02:46 | 18.69563 | -67.63898 | 37036 ft | 503 kts | 114° |
| 2026-04-12 02:46 | 18.66980 | -67.57050 | 37032 ft | 502 kts | 114° |
| 2026-04-12 02:47 | 18.64395 | -67.50214 | 37037 ft | 502 kts | 113° |
| 2026-04-12 02:47 | 18.61815 | -67.43380 | 37041 ft | 501 kts | 113° |
| 2026-04-12 02:48 | 18.59132 | -67.36610 | 37042 ft | 498 kts | 121° |
| 2026-04-12 02:48 | 18.55808 | -67.30270 | 37051 ft | 498 kts | 122° |
| 2026-04-12 02:49 | 18.52451 | -67.23886 | 37054 ft | 498 kts | 120° |
| 2026-04-12 02:49 | 18.50119 | -67.17019 | 37052 ft | 501 kts | 100° |
| 2026-04-12 02:50 | 18.49778 | -67.09725 | 37050 ft | 499 kts | 88° |
| 2026-04-12 02:50 | 18.49526 | -67.02407 | 37046 ft | 500 kts | 92° |
| 2026-04-12 02:51 | 18.49143 | -66.95088 | 37046 ft | 501 kts | 92° |
| 2026-04-12 02:51 | 18.48781 | -66.87757 | 37037 ft | 501 kts | 92° |
| 2026-04-12 02:52 | 18.48451 | -66.80426 | 37036 ft | 501 kts | 92° |
| 2026-04-12 02:52 | 18.48144 | -66.73128 | 37040 ft | 502 kts | 92° |
| 2026-04-12 02:53 | 18.47835 | -66.65790 | 37043 ft | 502 kts | 92° |
| 2026-04-12 02:53 | 18.47352 | -66.54761 | 37038 ft | 502 kts | 92° |
| 2026-04-12 02:54 | 18.47004 | -66.47416 | 37042 ft | 502 kts | 92° |
| 2026-04-12 02:54 | 18.46643 | -66.40070 | 37036 ft | 502 kts | 92° |
| 2026-04-12 02:55 | 18.46289 | -66.32769 | 37023 ft | 502 kts | 92° |
| 2026-04-12 02:55 | 18.45939 | -66.25419 | 37022 ft | 503 kts | 92° |
| 2026-04-12 02:56 | 18.45582 | -66.18061 | 37017 ft | 503 kts | 92° |
| 2026-04-12 02:56 | 18.45207 | -66.10711 | 37015 ft | 503 kts | 92° |
| 2026-04-12 02:57 | 18.44837 | -66.03359 | 37025 ft | 503 kts | 92° |
| 2026-04-12 02:57 | 18.44047 | -65.96057 | 37026 ft | 503 kts | 102° |
| 2026-04-12 02:58 | 18.42579 | -65.88857 | 37025 ft | 503 kts | 102° |
| 2026-04-12 02:58 | 18.41112 | -65.81652 | 37029 ft | 503 kts | 102° |
| 2026-04-12 02:59 | 18.39650 | -65.74490 | 37038 ft | 503 kts | 102° |
| 2026-04-12 02:59 | 18.38171 | -65.67280 | 37045 ft | 504 kts | 102° |
| 2026-04-12 03:00 | 18.36697 | -65.60072 | 37047 ft | 504 kts | 102° |
| 2026-04-12 03:00 | 18.35223 | -65.52871 | 37048 ft | 504 kts | 102° |
| 2026-04-12 03:01 | 18.33742 | -65.45664 | 37049 ft | 504 kts | 102° |
| 2026-04-12 03:01 | 18.32255 | -65.38451 | 37049 ft | 504 kts | 102° |
| 2026-04-12 03:02 | 18.30763 | -65.31243 | 37048 ft | 504 kts | 102° |
| 2026-04-12 03:02 | 18.29975 | -65.24001 | 37045 ft | 501 kts | 85° |
| 2026-04-12 03:03 | 18.31213 | -65.16870 | 37036 ft | 493 kts | 68° |
| 2026-04-12 03:03 | 18.33312 | -65.09988 | 36904 ft | 497 kts | 69° |
| 2026-04-12 03:04 | 18.34330 | -65.06509 | 36533 ft | 497 kts | 73° |
| 2026-04-12 03:04 | 18.34922 | -65.02917 | 35997 ft | 499 kts | 84° |
| 2026-04-12 03:04 | 18.34951 | -64.99261 | 35529 ft | 499 kts | 94° |
| 2026-04-12 03:04 | 18.34471 | -64.95655 | 35046 ft | 498 kts | 99° |
| 2026-04-12 03:05 | 18.33878 | -64.92070 | 34565 ft | 496 kts | 99° |
| 2026-04-12 03:05 | 18.33296 | -64.88496 | 34062 ft | 496 kts | 99° |
| 2026-04-12 03:05 | 18.32721 | -64.84925 | 33519 ft | 494 kts | 99° |
| 2026-04-12 03:05 | 18.32149 | -64.81370 | 33021 ft | 491 kts | 99° |
| 2026-04-12 03:06 | 18.31579 | -64.77834 | 32519 ft | 488 kts | 99° |
| 2026-04-12 03:06 | 18.31010 | -64.74318 | 32023 ft | 485 kts | 99° |
| 2026-04-12 03:06 | 18.30441 | -64.70833 | 31532 ft | 482 kts | 99° |
| 2026-04-12 03:06 | 18.29873 | -64.67373 | 31063 ft | 478 kts | 99° |
| 2026-04-12 03:07 | 18.29319 | -64.63995 | 30688 ft | 472 kts | 99° |
| 2026-04-12 03:07 | 18.28763 | -64.60597 | 30255 ft | 467 kts | 99° |
| 2026-04-12 03:07 | 18.28213 | -64.57251 | 29838 ft | 462 kts | 99° |
| 2026-04-12 03:07 | 18.27667 | -64.53932 | 29383 ft | 457 kts | 100° |
| 2026-04-12 03:08 | 18.27127 | -64.50662 | 28880 ft | 451 kts | 100° |
| 2026-04-12 03:08 | 18.26595 | -64.47451 | 28347 ft | 437 kts | 100° |
| 2026-04-12 03:08 | 18.26081 | -64.44352 | 27955 ft | 422 kts | 100° |
| 2026-04-12 03:08 | 18.25583 | -64.41356 | 27565 ft | 409 kts | 100° |
| 2026-04-12 03:09 | 18.25107 | -64.38487 | 27172 ft | 397 kts | 100° |
| 2026-04-12 03:09 | 18.24642 | -64.35671 | 26785 ft | 385 kts | 100° |
| 2026-04-12 03:09 | 18.24191 | -64.32937 | 26397 ft | 373 kts | 100° |
| 2026-04-12 03:09 | 18.23752 | -64.30265 | 26023 ft | 370 kts | 101° |
| 2026-04-12 03:10 | 18.23316 | -64.27605 | 25639 ft | 368 kts | 101° |
| 2026-04-12 03:10 | 18.22881 | -64.24963 | 25243 ft | 365 kts | 101° |
| 2026-04-12 03:10 | 18.22448 | -64.22343 | 24854 ft | 362 kts | 101° |
| 2026-04-12 03:10 | 18.22016 | -64.19745 | 24411 ft | 359 kts | 101° |
| 2026-04-12 03:11 | 18.21578 | -64.17133 | 23556 ft | 365 kts | 101° |
| 2026-04-12 03:11 | 18.21132 | -64.14477 | 22543 ft | 370 kts | 101° |
| 2026-04-12 03:11 | 18.20681 | -64.11796 | 21552 ft | 374 kts | 101° |
| 2026-04-12 03:11 | 18.20227 | -64.09090 | 20580 ft | 377 kts | 100° |
| 2026-04-12 03:12 | 18.19777 | -64.06407 | 19643 ft | 379 kts | 99° |
| 2026-04-12 03:12 | 18.19326 | -64.03691 | 18928 ft | 374 kts | 99° |
| 2026-04-12 03:12 | 18.18881 | -64.01027 | 18266 ft | 367 kts | 98° |
| 2026-04-12 03:12 | 18.18441 | -63.98403 | 17475 ft | 362 kts | 98° |
| 2026-04-12 03:13 | 18.18008 | -63.95808 | 16569 ft | 360 kts | 98° |
| 2026-04-12 03:13 | 18.17573 | -63.93215 | 15644 ft | 360 kts | 99° |
| 2026-04-12 03:13 | 18.17138 | -63.90627 | 14750 ft | 358 kts | 99° |
| 2026-04-12 03:13 | 18.16709 | -63.88059 | 13888 ft | 356 kts | 98° |
| 2026-04-12 03:14 | 18.16282 | -63.85523 | 13208 ft | 346 kts | 98° |
| 2026-04-12 03:14 | 18.15872 | -63.83091 | 12810 ft | 329 kts | 99° |
| 2026-04-12 03:14 | 18.15480 | -63.80778 | 12424 ft | 314 kts | 99° |
| 2026-04-12 03:14 | 18.15110 | -63.78587 | 12066 ft | 302 kts | 99° |
| 2026-04-12 03:15 | 18.14745 | -63.76428 | 11701 ft | 291 kts | 99° |
| 2026-04-12 03:15 | 18.14399 | -63.74379 | 11356 ft | 287 kts | 99° |
| 2026-04-12 03:15 | 18.14051 | -63.72319 | 11009 ft | 285 kts | 99° |
| 2026-04-12 03:15 | 18.13704 | -63.70266 | 10669 ft | 286 kts | 99° |
| 2026-04-12 03:16 | 18.13356 | -63.68205 | 10312 ft | 286 kts | 100° |
| 2026-04-12 03:16 | 18.12938 | -63.66157 | 9961 ft | 287 kts | 108° |
| 2026-04-12 03:16 | 18.12308 | -63.64167 | 9583 ft | 287 kts | 108° |
| 2026-04-12 03:16 | 18.11680 | -63.62177 | 9219 ft | 287 kts | 108° |
| 2026-04-12 03:17 | 18.11058 | -63.60190 | 8859 ft | 286 kts | 108° |
| 2026-04-12 03:17 | 18.10439 | -63.58206 | 8504 ft | 285 kts | 108° |
| 2026-04-12 03:17 | 18.09819 | -63.56227 | 8151 ft | 285 kts | 108° |
| 2026-04-12 03:17 | 18.09198 | -63.54247 | 7786 ft | 285 kts | 108° |
| 2026-04-12 03:18 | 18.08580 | -63.52273 | 7436 ft | 284 kts | 108° |
| 2026-04-12 03:18 | 18.07962 | -63.50303 | 7081 ft | 284 kts | 108° |
| 2026-04-12 03:18 | 18.07345 | -63.48336 | 6729 ft | 283 kts | 108° |
| 2026-04-12 03:18 | 18.06728 | -63.46370 | 6363 ft | 283 kts | 108° |
| 2026-04-12 03:19 | 18.06113 | -63.44405 | 5994 ft | 282 kts | 108° |
| 2026-04-12 03:19 | 18.05501 | -63.42447 | 5632 ft | 282 kts | 108° |
| 2026-04-12 03:19 | 18.04892 | -63.40499 | 5272 ft | 280 kts | 108° |
| 2026-04-12 03:19 | 18.04283 | -63.38558 | 4909 ft | 279 kts | 108° |
| 2026-04-12 03:20 | 18.03677 | -63.36633 | 4548 ft | 277 kts | 109° |
| 2026-04-12 03:20 | 18.03070 | -63.34713 | 4189 ft | 275 kts | 109° |
| 2026-04-12 03:20 | 18.02468 | -63.32810 | 3841 ft | 273 kts | 108° |
| 2026-04-12 03:20 | 18.01877 | -63.30942 | 3492 ft | 272 kts | 109° |
| 2026-04-12 03:21 | 18.01530 | -63.29001 | 3137 ft | 271 kts | 89° |
| 2026-04-12 03:21 | 18.01769 | -63.27031 | 2783 ft | 271 kts | 83° |
| 2026-04-12 03:21 | 18.02054 | -63.25077 | 2427 ft | 270 kts | 82° |
| 2026-04-12 03:21 | 18.02335 | -63.23153 | 2062 ft | 260 kts | 83° |
| 2026-04-12 03:22 | 18.02600 | -63.21336 | 1937 ft | 241 kts | 82° |
| 2026-04-12 03:22 | 18.02855 | -63.19615 | 1738 ft | 235 kts | 83° |
| 2026-04-12 03:22 | 18.03124 | -63.17959 | 1224 ft | 220 kts | 81° |
| 2026-04-12 03:22 | 18.03374 | -63.16460 | 790 ft | 198 kts | 83° |
| 2026-04-12 03:23 | 18.03590 | -63.15094 | 395 ft | 177 kts | 84° |
| 2026-04-12 03:23 | 18.03751 | -63.13823 | 284 ft | 172 kts | 87° |
| 2026-04-12 03:23 | 18.03859 | -63.12595 | 216 ft | 165 kts | 84° |
| 2026-04-12 03:23 | 18.04012 | -63.11460 | 48 ft | 152 kts | 84° |
| 2026-04-12 03:24 | 18.04171 | -63.10366 | 346 ft | 154 kts | 82° |
| 2026-04-12 03:24 | 18.04208 | -63.09219 | 970 ft | 159 kts | 101° |
| 2026-04-12 03:24 | 18.03781 | -63.08159 | 1852 ft | 158 kts | 124° |
| 2026-04-12 03:24 | 18.02980 | -63.07284 | 2450 ft | 178 kts | 138° |
| 2026-04-12 03:25 | 18.02079 | -63.06387 | 3265 ft | 179 kts | 132° |
| 2026-04-12 03:25 | 18.01184 | -63.05384 | 3864 ft | 192 kts | 135° |
| 2026-04-12 03:25 | 18.00073 | -63.04553 | 4294 ft | 198 kts | 155° |
| 2026-04-12 03:25 | 17.98713 | -63.04343 | 4520 ft | 204 kts | 185° |
| 2026-04-12 03:26 | 17.97408 | -63.04891 | 4538 ft | 205 kts | 217° |
| 2026-04-12 03:26 | 17.96575 | -63.06103 | 4524 ft | 209 kts | 241° |
| 2026-04-12 03:26 | 17.95986 | -63.07497 | 4406 ft | 209 kts | 245° |
| 2026-04-12 03:26 | 17.95446 | -63.08913 | 4249 ft | 209 kts | 250° |
| 2026-04-12 03:27 | 17.95216 | -63.10423 | 4080 ft | 210 kts | 263° |
| 2026-04-12 03:27 | 17.95123 | -63.11959 | 3907 ft | 211 kts | 265° |
| 2026-04-12 03:27 | 17.95048 | -63.13499 | 3744 ft | 211 kts | 265° |
| 2026-04-12 03:27 | 17.94971 | -63.15016 | 3573 ft | 211 kts | 265° |
| 2026-04-12 03:28 | 17.94892 | -63.16558 | 3404 ft | 210 kts | 265° |
| 2026-04-12 03:28 | 17.94802 | -63.18088 | 3238 ft | 210 kts | 265° |
| 2026-04-12 03:28 | 17.94720 | -63.19617 | 3067 ft | 209 kts | 265° |
| 2026-04-12 03:28 | 17.94640 | -63.21140 | 2825 ft | 209 kts | 265° |
| 2026-04-12 03:29 | 17.94560 | -63.22659 | 2598 ft | 207 kts | 265° |
| 2026-04-12 03:29 | 17.94479 | -63.24167 | 2527 ft | 207 kts | 265° |
| 2026-04-12 03:29 | 17.94446 | -63.25681 | 2526 ft | 208 kts | 277° |
| 2026-04-12 03:29 | 17.94966 | -63.27078 | 2530 ft | 207 kts | 309° |
| 2026-04-12 03:30 | 17.96078 | -63.27992 | 2534 ft | 202 kts | 341° |
| 2026-04-12 03:30 | 17.97425 | -63.28394 | 2539 ft | 202 kts | 349° |
| 2026-04-12 03:30 | 17.98792 | -63.28765 | 2538 ft | 203 kts | 350° |
| 2026-04-12 03:30 | 18.00123 | -63.28761 | 2516 ft | 185 kts | 21° |
| 2026-04-12 03:31 | 18.01192 | -63.28080 | 2532 ft | 174 kts | 50° |
| 2026-04-12 03:31 | 18.01776 | -63.27010 | 2533 ft | 167 kts | 78° |
| 2026-04-12 03:31 | 18.01961 | -63.25833 | 2539 ft | 165 kts | 84° |
| 2026-04-12 03:31 | 18.02128 | -63.24644 | 2532 ft | 165 kts | 83° |
| 2026-04-12 03:32 | 18.02284 | -63.23457 | 2466 ft | 164 kts | 86° |
| 2026-04-12 03:32 | 18.02440 | -63.22274 | 2329 ft | 163 kts | 85° |
| 2026-04-12 03:32 | 18.02602 | -63.21092 | 2148 ft | 164 kts | 84° |
| 2026-04-12 03:32 | 18.02768 | -63.19916 | 1896 ft | 161 kts | 84° |
| 2026-04-12 03:33 | 18.02956 | -63.18755 | 1598 ft | 161 kts | 82° |
| 2026-04-12 03:33 | 18.03119 | -63.17600 | 1384 ft | 158 kts | 84° |
| 2026-04-12 03:33 | 18.03267 | -63.16454 | 1254 ft | 152 kts | 86° |
| 2026-04-12 03:33 | 18.03401 | -63.15379 | 1036 ft | 145 kts | 83° |
| 2026-04-12 03:34 | 18.03590 | -63.14345 | 629 ft | 145 kts | 81° |
| 2026-04-12 03:34 | 18.03768 | -63.13313 | 277 ft | 141 kts | 84° |
| 2026-04-12 03:34 | 18.03896 | -63.12299 | 114 ft | 138 kts | 83° |
| 2026-04-12 03:34 | 18.04020 | -63.11351 | 20 ft | 99 kts | 82° |
| 2026-04-12 03:35 | 18.04068 | -63.11027 | 22 ft | 22 kts | 66° |
| 2026-04-12 03:35 | 18.04167 | -63.11047 | 21 ft | 17 kts | 263° |
| 2026-04-12 03:35 | 18.04150 | -63.11177 | 21 ft | 19 kts | 262° |
| 2026-04-12 03:35 | 18.04145 | -63.11285 | 23 ft | 13 kts | 291° |
| 2026-04-12 03:36 | 18.04201 | -63.11363 | 21 ft | 14 kts | 332° |
| 2026-04-12 03:36 | 18.04283 | -63.11392 | 21 ft | 12 kts | 350° |
| 2026-04-12 03:36 | 18.04317 | -63.11396 | 21 ft | 0 kts | 356° |
| 2026-04-12 03:36 | 18.04318 | -63.11396 | 21 ft | 0 kts | 356° |